createdAt,value
2023-01-07T00:01:22.656Z,32.10
2023-01-07T00:03:51.329Z,29.40
2023-01-07T00:06:24.945Z,29.70
2023-01-07T00:08:54.407Z,29.60
2023-01-07T00:11:24.724Z,31.50
2023-01-07T00:13:54.523Z,32.00
2023-01-07T00:16:24.026Z,32.10
2023-01-07T00:18:52.854Z,31.30
2023-01-07T00:21:21.844Z,32.10
2023-01-07T00:23:53.248Z,32.80
2023-01-07T00:26:22.907Z,32.60
2023-01-07T00:28:51.797Z,33.30
2023-01-07T00:31:21.893Z,33.70
2023-01-07T00:33:59.666Z,33.70
2023-01-07T00:36:36.112Z,33.50
2023-01-07T00:39:05.736Z,33.20
2023-01-07T00:41:33.881Z,32.50
2023-01-07T00:44:01.681Z,31.20
2023-01-07T00:46:29.899Z,31.30
2023-01-07T00:48:57.785Z,32.20
2023-01-07T00:51:25.526Z,32.90
2023-01-07T00:53:53.216Z,35.10
2023-01-07T00:56:21.193Z,33.20
2023-01-07T00:58:49.343Z,33.10
2023-01-07T01:01:18.001Z,32.40
2023-01-07T01:03:46.303Z,30.80
2023-01-07T01:06:15.779Z,31.20
2023-01-07T01:08:44.936Z,31.00
2023-01-07T01:11:15.380Z,32.80
2023-01-07T01:13:44.017Z,32.00
2023-01-07T01:16:14.949Z,31.00
2023-01-07T01:18:43.766Z,30.20
2023-01-07T01:21:13.932Z,32.40
2023-01-07T01:23:42.662Z,30.70
2023-01-07T01:26:14.049Z,28.90
2023-01-07T01:28:42.241Z,29.90
2023-01-07T01:31:11.212Z,29.10
2023-01-07T01:33:48.107Z,30.10
2023-01-07T01:36:15.978Z,30.00
2023-01-07T01:38:43.758Z,28.90
2023-01-07T01:41:13.880Z,29.00
2023-01-07T01:43:43.035Z,29.80
2023-01-07T01:46:32.152Z,28.10
2023-01-07T01:49:05.079Z,28.20
2023-01-07T01:51:37.486Z,29.00
2023-01-07T01:54:07.394Z,28.30
2023-01-07T01:56:38.859Z,30.40
2023-01-07T01:59:10.823Z,29.00
2023-01-07T02:01:39.083Z,29.80
2023-01-07T02:04:13.682Z,30.80
2023-01-07T02:07:12.057Z,31.90
2023-01-07T02:09:43.117Z,30.20
2023-01-07T02:12:24.349Z,33.00
2023-01-07T02:15:08.910Z,32.10
2023-01-07T02:17:57.917Z,33.40
2023-01-07T02:21:01.517Z,33.90
2023-01-07T02:23:45.552Z,31.60
2023-01-07T02:26:52.780Z,28.90
2023-01-07T02:29:42.424Z,30.60
2023-01-07T02:32:45.558Z,31.10
2023-01-07T02:35:24.937Z,32.70
2023-01-07T02:38:08.237Z,34.70
2023-01-07T02:41:13.516Z,35.60
2023-01-07T02:43:53.036Z,36.00
2023-01-07T02:46:52.757Z,37.40
2023-01-07T02:49:21.778Z,37.80
2023-01-07T02:51:49.565Z,41.30
2023-01-07T02:54:22.592Z,41.70
2023-01-07T02:57:20.562Z,42.00
2023-01-07T02:59:54.335Z,40.70
2023-01-07T03:02:47.090Z,42.10
2023-01-07T03:05:33.884Z,43.50
2023-01-07T03:08:13.352Z,45.50
2023-01-07T03:10:46.527Z,44.40
2023-01-07T03:13:20.110Z,46.30
2023-01-07T03:15:53.511Z,46.70
2023-01-07T03:18:34.587Z,46.10
2023-01-07T03:21:06.171Z,47.30
2023-01-07T03:23:36.384Z,48.70
2023-01-07T03:26:06.193Z,49.20
2023-01-07T03:28:40.543Z,50.50
2023-01-07T03:31:14.038Z,51.30
2023-01-07T03:33:51.678Z,50.10
2023-01-07T03:36:23.253Z,49.90
2023-01-07T03:38:52.451Z,49.30
2023-01-07T03:41:39.987Z,49.10
2023-01-07T03:44:08.107Z,47.50
2023-01-07T03:46:36.705Z,47.50
2023-01-07T03:49:05.217Z,44.70
2023-01-07T03:51:33.646Z,45.70
2023-01-07T03:54:01.438Z,45.50
2023-01-07T03:56:29.353Z,44.60
2023-01-07T03:58:57.007Z,43.60
2023-01-07T04:01:24.784Z,43.00
2023-01-07T04:03:53.248Z,44.50
2023-01-07T04:06:21.028Z,45.60
2023-01-07T04:08:48.934Z,45.90
2023-01-07T04:11:16.740Z,47.80
2023-01-07T04:13:44.490Z,48.80
2023-01-07T04:16:12.367Z,49.80
2023-01-07T04:18:40.125Z,48.20
2023-01-07T04:21:07.832Z,49.00
2023-01-07T04:23:35.603Z,50.20
2023-01-07T04:26:03.382Z,51.40
2023-01-07T04:28:31.344Z,51.70
2023-01-07T04:30:59.839Z,50.80
2023-01-07T04:33:28.299Z,52.30
2023-01-07T04:35:57.910Z,53.10
2023-01-07T04:38:26.726Z,53.40
2023-01-07T04:40:55.012Z,55.70
2023-01-07T04:43:22.671Z,54.60
2023-01-07T04:45:50.374Z,55.30
2023-01-07T04:48:18.833Z,53.30
2023-01-07T04:50:48.275Z,54.80
2023-01-07T04:53:16.147Z,54.00
2023-01-07T04:55:46.282Z,54.10
2023-01-07T04:58:14.693Z,55.40
2023-01-07T05:00:42.527Z,54.70
2023-01-07T05:03:11.630Z,55.00
2023-01-07T05:05:39.354Z,54.30
2023-01-07T05:08:07.072Z,54.10
2023-01-07T05:10:35.932Z,54.10
2023-01-07T05:13:07.013Z,56.70
2023-01-07T05:15:35.387Z,54.10
2023-01-07T05:18:03.989Z,52.40
2023-01-07T05:20:31.671Z,53.30
2023-01-07T05:22:59.724Z,53.20
2023-01-07T05:25:27.533Z,53.80
2023-01-07T05:27:55.704Z,53.80
2023-01-07T05:30:24.144Z,54.70
2023-01-07T05:32:51.853Z,56.60
2023-01-07T05:35:19.686Z,54.40
2023-01-07T05:37:47.398Z,55.10
2023-01-07T05:40:15.152Z,56.20
2023-01-07T05:42:43.733Z,56.90
2023-01-07T05:45:11.933Z,56.30
2023-01-07T05:47:39.621Z,56.30
2023-01-07T05:50:07.613Z,57.40
2023-01-07T05:52:35.310Z,58.90
2023-01-07T05:55:03.242Z,58.80
2023-01-07T05:57:30.913Z,58.80
2023-01-07T05:59:58.603Z,59.80
2023-01-07T06:02:26.245Z,60.50
2023-01-07T06:04:54.048Z,61.50
2023-01-07T06:07:21.734Z,61.60
2023-01-07T06:09:49.391Z,60.20
2023-01-07T06:12:17.041Z,60.40
2023-01-07T06:14:44.711Z,60.20
2023-01-07T06:17:12.394Z,59.50
2023-01-07T06:19:40.528Z,59.30
2023-01-07T06:22:08.217Z,59.30
2023-01-07T06:24:36.157Z,57.10
2023-01-07T06:27:03.897Z,55.50
2023-01-07T06:29:31.899Z,55.40
2023-01-07T06:31:59.557Z,52.90
2023-01-07T06:34:27.238Z,52.50
2023-01-07T06:36:54.968Z,50.50
2023-01-07T06:39:22.634Z,49.70
2023-01-07T06:41:50.445Z,51.80
2023-01-07T06:44:18.190Z,49.50
2023-01-07T06:46:45.857Z,51.80
2023-01-07T06:49:13.783Z,52.70
2023-01-07T06:51:41.442Z,60.20
2023-01-07T06:54:09.136Z,53.70
2023-01-07T06:56:36.856Z,55.20
2023-01-07T06:59:04.515Z,54.70
2023-01-07T07:01:32.324Z,58.20
2023-01-07T07:04:00.149Z,56.00
2023-01-07T07:06:27.840Z,54.30
2023-01-07T07:08:55.485Z,54.50
2023-01-07T07:11:23.132Z,53.60
2023-01-07T07:13:50.762Z,55.60
2023-01-07T07:16:18.459Z,57.40
2023-01-07T07:18:46.168Z,57.60
2023-01-07T07:21:13.816Z,52.10
2023-01-07T07:23:41.460Z,55.60
2023-01-07T07:26:10.157Z,52.00
2023-01-07T07:28:37.910Z,53.30
2023-01-07T07:31:05.635Z,54.30
2023-01-07T07:33:33.332Z,52.40
2023-01-07T07:36:00.998Z,49.60
2023-01-07T07:38:28.760Z,46.70
2023-01-07T07:40:56.897Z,48.20
2023-01-07T07:43:24.551Z,46.10
2023-01-07T07:45:53.064Z,46.20
2023-01-07T07:48:20.861Z,43.00
2023-01-07T07:50:51.625Z,47.40
2023-01-07T07:53:20.004Z,47.80
2023-01-07T07:55:47.691Z,50.50
2023-01-07T07:58:15.415Z,49.50
2023-01-07T08:00:43.137Z,49.70
2023-01-07T08:03:11.472Z,50.50
2023-01-07T08:05:41.227Z,50.10
2023-01-07T08:08:11.442Z,49.40
2023-01-07T08:10:39.693Z,49.90
2023-01-07T08:13:07.401Z,50.10
2023-01-07T08:15:35.339Z,51.60
2023-01-07T08:18:05.971Z,49.00
2023-01-07T08:20:35.604Z,48.70
2023-01-07T08:23:04.719Z,47.00
2023-01-07T08:25:33.294Z,48.70
2023-01-07T08:28:01.539Z,49.40
2023-01-07T08:30:29.798Z,46.20
2023-01-07T08:32:58.370Z,46.30
2023-01-07T08:35:26.194Z,44.60
2023-01-07T08:38:01.400Z,45.40
2023-01-07T08:40:29.073Z,44.80
2023-01-07T08:43:00.988Z,45.30
2023-01-07T08:45:29.425Z,47.60
2023-01-07T08:48:00.631Z,48.50
2023-01-07T08:50:30.209Z,49.80
2023-01-07T08:52:58.383Z,49.80
2023-01-07T08:55:26.102Z,48.40
2023-01-07T08:57:53.965Z,48.00
2023-01-07T09:00:22.061Z,46.80
2023-01-07T09:02:49.830Z,44.20
2023-01-07T09:05:17.977Z,61.30
2023-01-07T09:07:45.647Z,70.10
2023-01-07T09:10:13.379Z,48.80
2023-01-07T09:12:41.017Z,54.00
2023-01-07T09:15:09.534Z,43.60
2023-01-07T09:17:37.351Z,41.50
2023-01-07T09:20:06.915Z,45.40
2023-01-07T09:22:36.622Z,43.10
2023-01-07T09:25:05.618Z,46.20
2023-01-07T09:27:34.114Z,45.70
2023-01-07T09:30:02.073Z,50.10
2023-01-07T09:32:30.163Z,44.40
2023-01-07T09:34:57.956Z,42.60
2023-01-07T09:37:25.591Z,42.90
2023-01-07T09:39:53.241Z,47.90
2023-01-07T09:42:56.635Z,49.40
2023-01-07T09:45:31.106Z,42.00
2023-01-07T09:48:01.251Z,51.40
2023-01-07T09:51:05.304Z,38.70
2023-01-07T09:53:37.919Z,36.70
2023-01-07T09:56:12.877Z,43.00
2023-01-07T09:58:45.383Z,42.50
2023-01-07T10:01:35.613Z,38.80
2023-01-07T10:04:27.934Z,48.40
2023-01-07T10:07:20.516Z,39.60
2023-01-07T10:09:54.073Z,39.30
2023-01-07T10:12:39.738Z,37.70
2023-01-07T10:15:29.019Z,36.30
2023-01-07T10:18:15.238Z,44.30
2023-01-07T10:20:51.322Z,44.40
2023-01-07T10:23:26.109Z,44.00
2023-01-07T10:25:56.185Z,41.30
2023-01-07T10:28:41.811Z,40.50
2023-01-07T10:31:21.760Z,40.60
2023-01-07T10:33:52.360Z,41.40
2023-01-07T10:36:27.069Z,39.10
2023-01-07T10:39:17.341Z,38.20
2023-01-07T10:42:10.262Z,40.70
2023-01-07T10:45:04.543Z,42.30
2023-01-07T10:47:51.381Z,42.80
2023-01-07T10:50:19.117Z,43.20
2023-01-07T10:53:27.516Z,45.80
2023-01-07T10:56:19.209Z,45.90
2023-01-07T10:58:48.350Z,46.90
2023-01-07T11:01:32.216Z,49.40
2023-01-07T11:04:01.127Z,47.70
2023-01-07T11:06:49.472Z,51.70
2023-01-07T11:09:20.868Z,48.90
2023-01-07T11:11:50.074Z,48.60
2023-01-07T11:14:43.957Z,48.30
2023-01-07T11:17:25.918Z,44.30
2023-01-07T11:19:53.667Z,42.60
2023-01-07T11:22:27.539Z,42.10
2023-01-07T11:24:56.618Z,43.00
2023-01-07T11:27:26.453Z,44.40
2023-01-07T11:30:07.575Z,42.90
2023-01-07T11:32:40.326Z,44.70
2023-01-07T11:35:20.665Z,43.80
2023-01-07T11:37:50.749Z,42.30
2023-01-07T11:40:23.518Z,44.10
2023-01-07T11:42:55.545Z,40.30
2023-01-07T11:45:28.333Z,39.60
2023-01-07T11:48:01.154Z,37.90
2023-01-07T11:50:30.300Z,37.20
2023-01-07T11:53:00.950Z,38.20
2023-01-07T11:55:29.735Z,37.80
2023-01-07T11:58:28.861Z,37.40
2023-01-07T12:00:45.840Z,37.90
2023-01-07T12:03:14.158Z,39.00
2023-01-07T12:05:45.070Z,39.30
2023-01-07T12:08:20.762Z,38.40
2023-01-07T12:10:55.126Z,39.30
2023-01-07T12:13:26.061Z,39.50
2023-01-07T12:16:11.980Z,38.30
2023-01-07T12:18:49.511Z,38.60
2023-01-07T12:21:35.803Z,39.50
2023-01-07T12:24:37.714Z,38.90
2023-01-07T12:27:25.957Z,38.60
2023-01-07T12:29:59.461Z,39.80
2023-01-07T12:32:40.150Z,38.60
2023-01-07T12:35:27.381Z,40.30
2023-01-07T12:38:16.876Z,39.20
2023-01-07T12:40:51.123Z,38.40
2023-01-07T12:43:30.448Z,36.90
2023-01-07T12:46:00.910Z,36.60
2023-01-07T12:48:38.141Z,34.30
2023-01-07T12:51:15.148Z,33.60
2023-01-07T12:54:00.240Z,33.90
2023-01-07T12:56:35.779Z,33.50
2023-01-07T12:59:46.200Z,32.50
2023-01-07T13:02:14.357Z,31.50
2023-01-07T13:04:53.435Z,31.40
2023-01-07T13:07:46.528Z,30.30
2023-01-07T13:10:17.402Z,29.60
2023-01-07T13:12:47.544Z,30.50
2023-01-07T13:15:27.329Z,32.50
2023-01-07T13:17:57.542Z,29.80
2023-01-07T13:21:00.254Z,31.30
2023-01-07T13:24:00.555Z,34.20
2023-01-07T13:26:52.386Z,33.90
2023-01-07T13:29:42.021Z,35.90
2023-01-07T13:32:20.111Z,36.40
2023-01-07T13:35:14.181Z,36.10
2023-01-07T13:37:51.449Z,36.90
2023-01-07T13:40:40.643Z,36.60
2023-01-07T13:43:31.360Z,37.80
2023-01-07T13:46:07.813Z,35.40
2023-01-07T13:48:38.378Z,36.80
2023-01-07T13:51:07.649Z,37.20
2023-01-07T13:53:44.352Z,37.80
2023-01-07T13:56:18.282Z,37.00
2023-01-07T13:58:46.668Z,37.80
2023-01-07T14:01:18.379Z,38.50
2023-01-07T14:03:55.079Z,38.40
2023-01-07T14:06:23.890Z,39.30
2023-01-07T14:09:05.016Z,45.20
2023-01-07T14:11:32.645Z,42.40
2023-01-07T14:14:03.413Z,40.40
2023-01-07T14:16:32.937Z,41.40
2023-01-07T14:19:03.423Z,41.80
2023-01-07T14:21:43.895Z,42.90
2023-01-07T14:24:22.106Z,45.60
2023-01-07T14:26:52.839Z,49.40
2023-01-07T14:29:42.087Z,49.40
2023-01-07T14:32:28.162Z,44.30
2023-01-07T14:35:06.293Z,49.40
2023-01-07T14:37:46.910Z,49.30
2023-01-07T14:40:26.909Z,54.10
2023-01-07T14:43:15.356Z,44.90
2023-01-07T14:45:46.173Z,47.90
2023-01-07T14:48:16.619Z,59.80
2023-01-07T14:50:53.881Z,49.20
2023-01-07T14:53:27.733Z,47.90
2023-01-07T14:56:07.137Z,46.50
2023-01-07T14:59:16.176Z,46.50
2023-01-07T15:01:53.291Z,49.20
2023-01-07T15:05:00.405Z,48.30
2023-01-07T15:07:32.821Z,47.50
2023-01-07T15:10:22.181Z,47.50
2023-01-07T15:13:12.619Z,47.90
2023-01-07T15:16:00.061Z,54.90
2023-01-07T15:18:32.810Z,49.70
2023-01-07T15:21:19.219Z,51.40
2023-01-07T15:24:25.677Z,48.80
2023-01-07T15:27:01.929Z,55.50
2023-01-07T15:29:48.721Z,49.30
2023-01-07T15:32:31.743Z,51.90
2023-01-07T15:34:59.556Z,52.80
2023-01-07T15:37:27.287Z,52.00
2023-01-07T15:39:56.515Z,57.20
2023-01-07T15:42:27.268Z,54.70
2023-01-07T15:44:56.847Z,54.40
2023-01-07T15:47:40.920Z,55.70
2023-01-07T15:50:31.894Z,57.70
2023-01-07T15:53:02.149Z,57.00
2023-01-07T15:55:29.880Z,57.00
2023-01-07T15:58:04.892Z,58.40
2023-01-07T16:00:34.745Z,65.20
2023-01-07T16:03:03.171Z,62.20
2023-01-07T16:05:31.029Z,63.00
2023-01-07T16:08:00.365Z,72.60
2023-01-07T16:10:30.158Z,69.50
2023-01-07T16:13:01.296Z,70.40
2023-01-07T16:15:31.536Z,68.50
2023-01-07T16:18:02.106Z,70.60
2023-01-07T16:20:40.594Z,72.90
2023-01-07T16:23:08.404Z,74.50
2023-01-07T16:25:43.524Z,74.20
2023-01-07T16:28:22.793Z,89.20
2023-01-07T16:30:51.217Z,80.20
2023-01-07T16:33:21.720Z,75.80
2023-01-07T16:35:50.778Z,73.50
2023-01-07T16:38:19.744Z,73.40
2023-01-07T16:40:48.066Z,70.10
2023-01-07T16:43:40.243Z,67.70
2023-01-07T16:46:28.805Z,66.80
2023-01-07T16:49:29.924Z,69.20
2023-01-07T16:52:05.184Z,67.60
2023-01-07T16:54:37.073Z,69.30
2023-01-07T16:57:06.259Z,67.70
2023-01-07T16:59:36.045Z,76.00
2023-01-07T17:02:29.972Z,66.40
2023-01-07T17:05:12.446Z,81.10
2023-01-07T17:07:40.693Z,81.30
2023-01-07T17:10:19.107Z,79.00
2023-01-07T17:12:56.713Z,82.90
2023-01-07T17:15:34.108Z,89.80
2023-01-07T17:18:26.180Z,89.90
2023-01-07T17:20:57.364Z,87.10
2023-01-07T17:23:25.042Z,89.50
2023-01-07T17:26:02.214Z,87.90
2023-01-07T17:28:33.088Z,84.50
2023-01-07T17:31:00.941Z,85.70
2023-01-07T17:33:28.738Z,87.60
2023-01-07T17:35:59.309Z,91.60
2023-01-07T17:38:28.952Z,93.70
2023-01-07T17:40:56.732Z,97.60
2023-01-07T17:43:35.161Z,95.90
2023-01-07T17:46:08.817Z,97.50
2023-01-07T17:48:36.666Z,100.00
2023-01-07T17:51:05.697Z,97.00
2023-01-07T17:53:37.579Z,91.40
2023-01-07T17:56:05.730Z,99.90
2023-01-07T17:58:35.357Z,92.80
2023-01-07T18:01:08.279Z,101.20
2023-01-07T18:03:36.854Z,99.40
2023-01-07T18:06:14.007Z,96.80
2023-01-07T18:08:41.671Z,91.70
2023-01-07T18:11:31.769Z,99.50
2023-01-07T18:13:59.452Z,98.50
2023-01-07T18:16:27.814Z,101.10
2023-01-07T18:18:56.584Z,111.10
2023-01-07T18:21:24.605Z,106.00
2023-01-07T18:23:52.307Z,98.70
2023-01-07T18:26:20.235Z,92.70
2023-01-07T18:28:48.661Z,94.30
2023-01-07T18:31:16.572Z,94.70
2023-01-07T18:33:44.298Z,94.60
2023-01-07T18:36:12.114Z,106.90
2023-01-07T18:38:40.012Z,97.50
2023-01-07T18:41:07.813Z,103.50
2023-01-07T18:43:35.423Z,115.50
2023-01-07T18:46:07.769Z,116.00
2023-01-07T18:48:36.557Z,117.70
2023-01-07T18:51:09.449Z,119.60
2023-01-07T18:53:38.241Z,123.70
2023-01-07T18:56:11.836Z,131.40
2023-01-07T18:58:40.636Z,126.50
2023-01-07T19:01:09.466Z,120.60
2023-01-07T19:03:37.564Z,119.30
2023-01-07T19:06:10.317Z,114.70
2023-01-07T19:08:38.564Z,118.40
2023-01-07T19:11:07.973Z,117.90
2023-01-07T19:13:35.979Z,117.30
2023-01-07T19:16:12.117Z,118.00
2023-01-07T19:18:40.220Z,118.80
2023-01-07T19:21:10.657Z,118.80
2023-01-07T19:23:39.730Z,122.40
2023-01-07T19:26:09.069Z,128.50
2023-01-07T19:28:36.778Z,120.00
2023-01-07T19:31:06.629Z,117.00
2023-01-07T19:33:34.659Z,117.40
2023-01-07T19:36:09.234Z,121.00
2023-01-07T19:38:45.009Z,105.10
2023-01-07T19:41:15.522Z,105.30
2023-01-07T19:43:45.596Z,109.60
2023-01-07T19:46:15.195Z,108.80
2023-01-07T19:48:43.027Z,116.30
2023-01-07T19:51:10.884Z,101.40
2023-01-07T19:53:39.104Z,109.90
2023-01-07T19:56:12.022Z,107.30
2023-01-07T19:58:40.149Z,114.50
2023-01-07T20:01:10.799Z,108.00
2023-01-07T20:03:39.476Z,107.10
2023-01-07T20:06:13.116Z,105.40
2023-01-07T20:08:41.421Z,102.20
2023-01-07T20:11:09.583Z,101.50
2023-01-07T20:13:38.723Z,104.10
2023-01-07T20:16:24.030Z,100.20
2023-01-07T20:18:53.905Z,97.70
2023-01-07T20:21:25.347Z,103.40
2023-01-07T20:23:53.643Z,103.10
2023-01-07T20:26:32.498Z,104.80
2023-01-07T20:29:00.853Z,110.70
2023-01-07T20:31:30.046Z,108.40
2023-01-07T20:33:58.784Z,104.60
2023-01-07T20:36:29.522Z,106.60
2023-01-07T20:38:57.499Z,108.10
2023-01-07T20:41:27.321Z,108.20
2023-01-07T20:43:57.487Z,109.40
2023-01-07T20:46:26.773Z,102.40
2023-01-07T20:48:55.525Z,107.40
2023-01-07T20:51:23.591Z,108.10
2023-01-07T20:53:51.683Z,109.80
2023-01-07T20:56:21.062Z,112.30
2023-01-07T20:58:50.023Z,117.30
2023-01-07T21:01:20.252Z,117.40
2023-01-07T21:03:48.729Z,119.00
2023-01-07T21:06:18.105Z,119.70
2023-01-07T21:08:47.023Z,115.20
2023-01-07T21:11:17.702Z,114.10
2023-01-07T21:13:46.409Z,115.20
2023-01-07T21:16:14.437Z,114.10
2023-01-07T21:18:42.521Z,112.30
2023-01-07T21:21:13.054Z,107.30
2023-01-07T21:23:41.061Z,113.10
2023-01-07T21:26:09.355Z,100.60
2023-01-07T21:28:37.014Z,109.30
2023-01-07T21:31:08.646Z,102.60
2023-01-07T21:33:37.829Z,100.10
2023-01-07T21:36:14.411Z,102.90
2023-01-07T21:38:42.863Z,108.80
2023-01-07T21:41:15.479Z,98.30
2023-01-07T21:43:43.975Z,97.60
2023-01-07T21:46:12.278Z,98.70
2023-01-07T21:48:41.991Z,102.40
2023-01-07T21:51:16.733Z,95.30
2023-01-07T21:53:44.556Z,100.90
2023-01-07T21:56:14.952Z,92.30
2023-01-07T21:58:44.144Z,95.80
2023-01-07T22:01:12.357Z,101.90
2023-01-07T22:03:40.191Z,99.30
2023-01-07T22:06:12.710Z,93.20
2023-01-07T22:08:40.340Z,99.00
2023-01-07T22:11:12.473Z,94.90
2023-01-07T22:13:40.251Z,99.20
2023-01-07T22:16:08.599Z,98.00
2023-01-07T22:18:36.385Z,96.80
2023-01-07T22:21:04.139Z,95.20
2023-01-07T22:23:31.818Z,98.20
2023-01-07T22:26:04.947Z,101.40
2023-01-07T22:28:35.207Z,99.20
2023-01-07T22:31:08.683Z,99.20
2023-01-07T22:33:36.313Z,102.00
2023-01-07T22:36:04.455Z,97.30
2023-01-07T22:38:32.665Z,95.20
2023-01-07T22:41:02.257Z,94.40
2023-01-07T22:43:30.255Z,96.00
2023-01-07T22:46:01.991Z,98.30
2023-01-07T22:48:32.475Z,107.90
2023-01-07T22:51:05.082Z,109.60
2023-01-07T22:53:33.063Z,96.00
2023-01-07T22:56:00.924Z,103.20
2023-01-07T22:58:28.735Z,104.50
2023-01-07T23:00:57.023Z,112.60
2023-01-07T23:03:25.526Z,105.80
2023-01-07T23:05:53.238Z,100.40
2023-01-07T23:08:20.907Z,99.00
2023-01-07T23:10:48.738Z,99.90
2023-01-07T23:13:16.441Z,97.60
2023-01-07T23:15:44.089Z,99.00
2023-01-07T23:18:12.314Z,100.70
2023-01-07T23:20:41.485Z,98.80
2023-01-07T23:23:10.406Z,100.40
2023-01-07T23:25:44.816Z,97.90
2023-01-07T23:28:12.571Z,94.00
2023-01-07T23:30:40.517Z,89.60
2023-01-07T23:33:08.356Z,89.90
2023-01-07T23:35:36.673Z,88.50
2023-01-07T23:38:04.394Z,90.10
2023-01-07T23:40:36.240Z,87.60
2023-01-07T23:43:03.969Z,87.90
2023-01-07T23:45:31.666Z,86.20
2023-01-07T23:47:59.453Z,84.50
2023-01-07T23:50:27.416Z,81.40
2023-01-07T23:52:55.051Z,83.20
2023-01-07T23:55:22.683Z,82.10
2023-01-07T23:57:50.328Z,77.20
